Time;durP1;ratioP1;P1;durP2;ratioP2;P2;SDS_P1;SDS_P2;PMS_P1;PMS_P2;Temp;Humidity;BMP_temperature;BMP_pressure;BME280_temperature;BME280_humidity;BME280_pressure;Samples;Min_cycle;Max_cycle;Signal;HPM_P1;HPM_P2
2022/08/15 00:00:35;;;;;;;5.35;3.13;;;;;;;25.07;60.20;99096.69;4874543;29;20061;-61
2022/08/15 00:03:02;;;;;;;3.95;2.30;;;;;;;25.14;60.17;99102.31;4889171;29;20113;-61
2022/08/15 00:05:33;;;;;;;4.38;2.05;;;;;;;25.10;60.63;99112.69;4893808;29;20503;-61
2022/08/15 00:07:59;;;;;;;3.92;2.30;;;;;;;24.97;60.80;99092.38;4892996;29;20095;-62
2022/08/15 00:10:26;;;;;;;5.85;2.20;;;;;;;25.03;61.46;99108.91;4876032;29;20028;-61
2022/08/15 00:12:51;;;;;;;7.82;2.60;;;;;;;24.96;62.20;99105.09;4893257;29;20036;-61
2022/08/15 00:15:18;;;;;;;3.88;2.00;;;;;;;24.91;62.21;99107.47;4893923;29;20080;-61
2022/08/15 00:17:48;;;;;;;7.50;2.85;;;;;;;24.86;63.67;99109.81;4894045;29;20029;-61
2022/08/15 00:20:14;;;;;;;3.72;1.98;;;;;;;24.80;63.88;99113.19;4893510;29;20488;-61
2022/08/15 00:22:46;;;;;;;5.00;2.35;;;;;;;24.78;64.27;99101.59;4893760;29;20709;-61
2022/08/15 00:25:12;;;;;;;4.28;2.33;;;;;;;24.75;65.20;99110.09;4880315;29;20553;-61
2022/08/15 00:27:37;;;;;;;11.70;2.97;;;;;;;24.71;65.26;99103.28;4875135;29;20033;-61
2022/08/15 00:30:05;;;;;;;7.32;2.90;;;;;;;24.68;66.45;99100.88;4874379;29;20025;-61
2022/08/15 00:32:32;;;;;;;7.25;2.70;;;;;;;24.65;66.83;99101.16;4886418;29;20036;-61
2022/08/15 00:34:58;;;;;;;4.10;2.22;;;;;;;24.58;67.94;99100.94;4894024;29;20036;-61
2022/08/15 00:37:24;;;;;;;6.10;2.15;;;;;;;24.52;69.10;99108.91;4893151;29;20650;-61
2022/08/15 00:39:49;;;;;;;5.95;2.42;;;;;;;24.46;69.08;99104.09;4893581;29;20039;-61
2022/08/15 00:42:23;;;;;;;5.65;2.00;;;;;;;24.39;70.19;99105.75;4894119;29;20025;-61
2022/08/15 00:44:49;;;;;;;6.70;2.30;;;;;;;24.38;70.26;99114.94;4893869;29;20041;-61
2022/08/15 00:47:18;;;;;;;8.18;3.63;;;;;;;24.33;70.71;99122.69;4896171;29;20092;-61
2022/08/15 00:49:45;;;;;;;5.50;2.28;;;;;;;24.32;71.19;99126.41;4893190;29;20045;-61
2022/08/15 00:52:19;;;;;;;6.47;2.45;;;;;;;24.26;71.52;99124.34;4893854;29;20370;-61
2022/08/15 00:54:52;;;;;;;4.68;2.20;;;;;;;24.21;71.65;99129.38;4891559;29;20063;-61
2022/08/15 00:57:21;;;;;;;6.38;2.50;;;;;;;24.18;71.53;99118.84;4896485;29;20048;-61
2022/08/15 00:59:51;;;;;;;4.65;2.00;;;;;;;24.14;71.73;99115.56;4897857;29;20457;-61
2022/08/15 01:02:20;;;;;;;4.15;2.22;;;;;;;24.09;71.99;99117.91;4898875;29;20400;-61
2022/08/15 01:04:46;;;;;;;8.18;2.33;;;;;;;24.02;72.97;99113.28;4899119;29;20068;-61
2022/08/15 01:07:12;;;;;;;4.65;2.20;;;;;;;23.94;73.67;99110.41;4898423;29;20063;-61
2022/08/15 01:09:38;;;;;;;5.15;2.28;;;;;;;23.87;74.66;99114.78;4892039;29;20037;-61
2022/08/15 01:12:20;;;;;;;5.28;1.83;;;;;;;23.74;75.51;99114.31;4894888;29;20036;-61
2022/08/15 01:15:02;;;;;;;5.55;1.88;;;;;;;23.60;77.06;99112.13;4898285;29;20092;-61
2022/08/15 01:17:30;;;;;;;6.10;2.30;;;;;;;23.57;78.20;99123.28;4898672;29;20063;-61
2022/08/15 01:20:01;;;;;;;7.40;2.78;;;;;;;23.54;78.55;99127.19;4898805;29;20084;-61
2022/08/15 01:22:38;;;;;;;3.80;1.80;;;;;;;23.46;80.14;99120.81;4898607;29;20039;-61
2022/08/15 01:25:16;;;;;;;3.72;1.85;;;;;;;23.37;79.52;99118.00;4898866;29;20496;-61
2022/08/15 01:27:50;;;;;;;3.92;2.05;;;;;;;23.41;80.01;99130.25;4898733;29;20032;-61
2022/08/15 01:30:20;;;;;;;5.50;2.25;;;;;;;23.39;79.91;99142.28;4898772;29;20444;-61
2022/08/15 01:32:46;;;;;;;5.68;2.13;;;;;;;23.38;80.40;99137.84;4898670;29;20036;-61
2022/08/15 01:35:13;;;;;;;4.22;2.22;;;;;;;23.38;81.62;99151.41;4898468;29;20031;-61
2022/08/15 01:37:40;;;;;;;2.60;1.50;;;;;;;23.24;82.97;99144.59;4898308;29;20025;-61
2022/08/15 01:40:19;;;;;;;5.60;2.75;;;;;;;23.06;85.90;99157.22;4898480;29;20067;-61
2022/08/15 01:42:48;;;;;;;5.57;1.92;;;;;;;22.94;87.43;99163.88;4898335;29;20489;-61
2022/08/15 01:45:26;;;;;;;3.92;1.95;;;;;;;22.71;90.09;99162.50;4898285;29;20477;-61
2022/08/15 01:47:58;;;;;;;5.32;1.73;;;;;;;22.58;92.51;99159.28;4898222;29;20044;-61
2022/08/15 01:50:39;;;;;;;3.38;1.75;;;;;;;22.39;93.65;99156.53;4898331;29;20381;-61
2022/08/15 01:53:15;;;;;;;2.67;1.65;;;;;;;22.27;94.27;99157.72;4898049;29;20059;-60
2022/08/15 01:56:09;;;;;;;3.90;1.67;;;;;;;22.07;95.40;99150.59;4898252;29;20021;-61
2022/08/15 01:58:40;;;;;;;3.85;1.67;;;;;;;21.92;96.27;99143.88;4891180;29;20509;-61
2022/08/15 02:01:09;;;;;;;3.42;1.67;;;;;;;21.95;96.15;99152.59;4888627;29;20565;-61
2022/08/15 02:03:38;;;;;;;2.63;1.35;;;;;;;21.94;96.01;99152.72;4886550;29;20099;-61
2022/08/15 02:06:09;;;;;;;3.08;1.70;;;;;;;21.96;97.74;99153.41;4896002;29;20468;-61
2022/08/15 02:08:36;;;;;;;3.25;1.30;;;;;;;21.91;97.07;99155.72;4895065;29;20029;-61
2022/08/15 02:11:04;;;;;;;5.20;1.55;;;;;;;21.86;96.95;99152.59;4879268;29;20092;-62
2022/08/15 02:13:29;;;;;;;6.10;1.77;;;;;;;21.83;96.89;99152.84;4876908;29;20044;-62
2022/08/15 02:15:55;;;;;;;2.95;1.45;;;;;;;21.78;97.13;99157.81;4877924;29;20123;-62
2022/08/15 02:18:20;;;;;;;4.72;1.70;;;;;;;21.82;97.36;99151.16;4878392;29;20033;-62
2022/08/15 02:20:46;;;;;;;3.22;1.70;;;;;;;21.81;97.58;99149.44;4878264;29;20037;-62
2022/08/15 02:23:11;;;;;;;4.00;1.70;;;;;;;21.82;97.33;99151.16;4878139;29;20032;-62
2022/08/15 02:25:37;;;;;;;2.13;1.40;;;;;;;21.82;97.69;99143.88;4878019;29;20052;-62
2022/08/15 02:28:03;;;;;;;5.78;1.90;;;;;;;21.75;97.48;99144.53;4895991;29;20020;-62
2022/08/15 02:30:31;;;;;;;3.88;1.63;;;;;;;21.73;97.91;99147.41;4896970;29;20035;-62
2022/08/15 02:32:57;;;;;;;1.95;1.33;;;;;;;21.75;97.98;99144.53;4896539;29;20115;-62
2022/08/15 02:35:23;;;;;;;4.68;1.33;;;;;;;21.71;98.77;99143.13;4896618;29;20075;-62
2022/08/15 02:37:49;;;;;;;3.38;1.25;;;;;;;21.69;98.25;99145.97;4897404;29;20060;-62
2022/08/15 02:40:15;;;;;;;7.07;2.03;;;;;;;21.70;98.04;99142.28;4897225;29;20032;-62
2022/08/15 02:42:44;;;;;;;3.08;1.77;;;;;;;21.68;98.21;99152.38;4897229;29;20027;-62
2022/08/15 02:45:11;;;;;;;3.97;1.60;;;;;;;21.68;99.02;99149.66;4898160;29;20040;-62
2022/08/15 02:47:37;;;;;;;3.67;1.50;;;;;;;21.72;98.59;99155.66;4898550;29;20028;-62
2022/08/15 02:50:06;;;;;;;4.35;1.80;;;;;;;21.72;98.32;99147.53;4897123;29;20032;-62
2022/08/15 02:52:38;;;;;;;4.70;1.85;;;;;;;21.69;99.51;99145.13;4896940;29;20448;-63
2022/08/15 02:55:04;;;;;;;2.95;1.30;;;;;;;21.64;99.64;99142.84;4897135;29;20085;-62
2022/08/15 02:57:31;;;;;;;1.83;0.98;;;;;;;21.63;99.30;99146.53;4897050;29;20028;-62
2022/08/15 02:59:57;;;;;;;3.17;1.25;;;;;;;21.64;99.60;99148.25;4896727;29;20055;-62
2022/08/15 03:02:23;;;;;;;5.30;1.83;;;;;;;21.47;99.27;99118.28;4896968;29;20033;-62
2022/08/15 03:04:49;;;;;;;1.88;1.33;;;;;;;21.60;100.00;99145.94;4896563;29;20088;-63
2022/08/15 03:07:14;;;;;;;12.32;2.90;;;;;;;21.52;99.75;99138.53;4896603;29;20072;-62
2022/08/15 03:09:40;;;;;;;12.68;1.50;;;;;;;21.53;99.23;99134.81;4896710;29;20040;-63
2022/08/15 03:12:07;;;;;;;4.72;1.52;;;;;;;21.50;99.31;99145.09;4896285;29;20024;-63
2022/08/15 03:14:36;;;;;;;10.85;2.35;;;;;;;21.50;99.44;99139.69;4896576;29;20075;-63
2022/08/15 03:17:04;;;;;;;9.43;2.15;;;;;;;21.49;99.29;99136.13;4896658;29;20039;-63
2022/08/15 03:19:29;;;;;;;14.50;3.65;;;;;;;21.47;99.13;99129.97;4898465;29;20112;-63
2022/08/15 03:21:55;;;;;;;3.38;1.27;;;;;;;21.45;98.70;99131.13;4896439;29;20612;-63
2022/08/15 03:24:22;;;;;;;3.03;1.30;;;;;;;21.50;99.03;99134.28;4896531;29;20029;-63
2022/08/15 03:26:48;;;;;;;10.88;1.92;;;;;;;21.45;99.18;99131.13;4896342;29;20043;-63
2022/08/15 03:29:18;;;;;;;3.47;1.25;;;;;;;21.43;99.49;99133.13;4896375;29;20029;-62
2022/08/15 03:31:47;;;;;;;3.33;1.30;;;;;;;21.37;99.69;99134.50;4895760;29;20057;-63
2022/08/15 03:34:15;;;;;;;11.18;1.92;;;;;;;21.33;99.54;99149.34;4894313;29;20525;-63
2022/08/15 03:36:44;;;;;;;4.82;1.40;;;;;;;21.31;99.40;99143.19;4895224;29;20043;-63
2022/08/15 03:39:10;;;;;;;2.38;1.20;;;;;;;21.28;99.62;99140.78;4895563;29;20605;-62
2022/08/15 03:41:35;;;;;;;13.10;2.03;;;;;;;21.25;100.00;99140.19;4895247;29;20115;-63
2022/08/15 03:44:01;;;;;;;7.28;2.60;;;;;;;21.27;100.00;99133.63;4895369;29;20581;-63
2022/08/15 03:46:27;;;;;;;2.63;1.40;;;;;;;21.27;100.00;99127.38;4895171;29;20172;-63
2022/08/15 03:48:56;;;;;;;4.22;1.63;;;;;;;21.25;100.00;99126.66;4895931;29;20028;-62
2022/08/15 03:51:24;;;;;;;4.20;2.13;;;;;;;21.22;100.00;99135.06;4896112;29;20480;-62
2022/08/15 03:53:55;;;;;;;4.15;1.73;;;;;;;21.21;99.67;99130.63;4896265;29;20384;-63
2022/08/15 03:56:25;;;;;;;4.55;1.67;;;;;;;21.19;99.88;99132.59;4887586;29;20021;-63
2022/08/15 03:58:52;;;;;;;3.85;1.50;;;;;;;21.08;99.56;99124.59;4877486;29;20029;-63
2022/08/15 04:01:21;;;;;;;12.95;1.60;;;;;;;21.03;99.15;99125.03;4878155;29;20048;-62
2022/08/15 04:03:48;;;;;;;5.90;1.75;;;;;;;21.09;100.00;99134.44;4895954;29;20040;-63
2022/08/15 04:06:18;;;;;;;10.40;2.10;;;;;;;21.07;99.46;99131.84;4895997;29;20049;-62
2022/08/15 04:08:47;;;;;;;5.22;1.60;;;;;;;21.12;99.14;99145.81;4895967;29;20107;-62
2022/08/15 04:11:14;;;;;;;8.07;1.85;;;;;;;21.12;98.79;99140.41;4895972;29;20111;-62
2022/08/15 04:13:40;;;;;;;2.95;1.55;;;;;;;21.18;98.31;99139.03;4895856;29;20024;-62
2022/08/15 04:16:07;;;;;;;3.25;1.30;;;;;;;21.18;97.77;99137.19;4895213;29;20025;-62
2022/08/15 04:18:33;;;;;;;5.22;1.60;;;;;;;21.22;97.40;99130.47;4896052;29;20032;-62
2022/08/15 04:21:02;;;;;;;3.50;1.40;;;;;;;21.27;96.77;99132.81;4895323;29;20515;-62
2022/08/15 04:23:28;;;;;;;2.58;1.40;;;;;;;21.31;96.29;99134.22;4895051;29;20749;-62
2022/08/15 04:25:54;;;;;;;3.33;1.88;;;;;;;21.26;96.54;99131.06;4895601;29;20485;-62
2022/08/15 04:28:21;;;;;;;2.65;1.50;;;;;;;21.27;96.06;99127.38;4896585;29;20035;-62
2022/08/15 04:30:48;;;;;;;3.22;1.60;;;;;;;21.21;96.35;99115.25;4894992;29;20172;-62
2022/08/15 04:33:16;;;;;;;5.30;1.95;;;;;;;21.21;96.04;99117.09;4898282;29;20107;-63
2022/08/15 04:35:45;;;;;;;10.38;1.70;;;;;;;21.19;96.26;99113.66;4899124;29;20040;-63
2022/08/15 04:38:10;;;;;;;3.67;1.25;;;;;;;21.09;95.91;99108.25;4899447;29;20044;-62
2022/08/15 04:40:36;;;;;;;5.30;2.25;;;;;;;21.09;96.05;99099.28;4899415;29;20101;-62
2022/08/15 04:43:02;;;;;;;2.70;1.20;;;;;;;21.05;95.91;99096.00;4899312;29;20044;-63
2022/08/15 04:45:30;;;;;;;3.58;1.63;;;;;;;20.98;95.31;99093.97;4899211;29;20036;-63
2022/08/15 04:47:57;;;;;;;3.17;1.40;;;;;;;20.97;95.44;99089.53;4899327;29;20060;-62
2022/08/15 04:50:22;;;;;;;4.07;1.50;;;;;;;20.98;95.26;99081.31;4900076;29;20035;-62
2022/08/15 04:52:54;;;;;;;5.55;1.70;;;;;;;20.97;94.70;99087.72;4916191;29;20387;-62
2022/08/15 04:55:22;;;;;;;4.90;1.35;;;;;;;20.93;94.68;99081.72;4918001;29;20038;-62
2022/08/15 04:57:48;;;;;;;7.22;1.60;;;;;;;20.93;94.84;99084.41;4917936;29;20083;-62
2022/08/15 05:00:17;;;;;;;5.25;1.52;;;;;;;20.95;94.90;99090.50;4917842;29;20461;-62
2022/08/15 05:03:00;;;;;;;7.63;1.67;;;;;;;20.98;94.42;99099.38;4905880;29;20431;-62
2022/08/15 05:05:26;;;;;;;5.70;1.67;;;;;;;20.95;94.17;99084.28;4899042;29;20036;-62
2022/08/15 05:07:52;;;;;;;3.75;1.48;;;;;;;21.02;93.51;99103.53;4898768;29;20061;-62
2022/08/15 05:10:18;;;;;;;4.43;1.90;;;;;;;21.00;94.13;99106.38;4896961;29;20059;-62
2022/08/15 05:12:44;;;;;;;3.95;1.80;;;;;;;21.01;94.20;99115.31;4898247;29;20029;-62
2022/08/15 05:15:12;;;;;;;4.63;1.63;;;;;;;21.02;93.39;99111.66;4897785;29;20067;-62
2022/08/15 05:17:38;;;;;;;5.60;1.80;;;;;;;21.03;93.51;99122.31;4897657;29;20044;-62
2022/08/15 05:20:04;;;;;;;10.90;3.78;;;;;;;21.06;93.60;99121.19;4897603;29;20032;-62
2022/08/15 05:22:30;;;;;;;4.75;1.60;;;;;;;21.07;94.25;99133.72;4897882;29;20084;-62
2022/08/15 05:24:57;;;;;;;4.85;1.60;;;;;;;21.07;94.03;99133.72;4900995;29;20025;-62
2022/08/15 05:27:22;;;;;;;3.33;1.83;;;;;;;21.13;93.87;99135.88;4898530;29;20374;-62
2022/08/15 05:29:47;;;;;;;6.60;1.52;;;;;;;21.22;93.42;99135.91;4897547;29;20091;-62
2022/08/15 05:32:13;;;;;;;2.67;1.35;;;;;;;21.28;93.30;99118.25;4897428;29;20040;-62
2022/08/15 05:34:38;;;;;;;5.22;1.90;;;;;;;21.36;92.45;99131.94;4897430;29;20028;-62
2022/08/15 05:37:04;;;;;;;3.17;1.50;;;;;;;21.31;92.55;99128.81;4897586;29;20104;-62
2022/08/15 05:39:32;;;;;;;3.22;1.67;;;;;;;21.36;92.88;99143.63;4897504;29;20060;-62
2022/08/15 05:42:14;;;;;;;3.33;1.60;;;;;;;21.42;93.41;99142.22;4897600;29;20028;-63
2022/08/15 05:45:01;;;;;;;4.18;1.98;;;;;;;21.54;92.67;99143.81;4898273;29;20564;-62
2022/08/15 05:48:03;;;;;;;2.58;1.35;;;;;;;21.57;91.68;99143.53;4898100;29;20031;-62
2022/08/15 05:50:43;;;;;;;5.78;1.80;;;;;;;21.52;91.87;99145.78;4887919;29;20040;-62
2022/08/15 05:53:47;;;;;;;2.75;1.58;;;;;;;21.49;91.65;99140.66;4898290;29;20024;-62
2022/08/15 05:56:35;;;;;;;3.72;2.00;;;;;;;21.49;91.60;99143.38;4897572;29;20036;-62
2022/08/15 05:59:08;;;;;;;4.32;1.60;;;;;;;21.54;91.69;99141.09;4897729;29;20123;-62
2022/08/15 06:01:42;;;;;;;6.43;1.80;;;;;;;21.63;91.46;99145.69;4898231;29;20047;-62
2022/08/15 06:04:11;;;;;;;7.30;1.77;;;;;;;21.62;91.50;99149.38;4897921;29;20061;-62
2022/08/15 06:06:42;;;;;;;3.15;1.50;;;;;;;21.67;91.07;99144.41;4897184;29;20377;-62
2022/08/15 06:09:27;;;;;;;4.50;1.80;;;;;;;21.73;91.49;99141.16;4897695;29;20480;-62
2022/08/15 06:11:55;;;;;;;4.78;2.20;;;;;;;21.78;91.80;99144.28;4897831;29;20512;-62
2022/08/15 06:14:34;;;;;;;4.03;1.85;;;;;;;21.80;91.08;99142.31;4897966;29;20024;-62
2022/08/15 06:17:07;;;;;;;3.42;1.45;;;;;;;21.84;90.46;99143.75;4897284;29;20036;-62
2022/08/15 06:19:36;;;;;;;4.60;2.15;;;;;;;21.87;90.20;99143.47;4897810;29;20043;-62
2022/08/15 06:22:10;;;;;;;2.97;1.77;;;;;;;21.88;89.81;99150.56;4895473;29;20032;-62
2022/08/15 06:24:43;;;;;;;4.28;1.92;;;;;;;22.05;89.47;99142.63;4878957;29;20043;-63
2022/08/15 06:27:35;;;;;;;7.65;1.60;;;;;;;22.45;87.62;99149.69;4883552;29;20020;-62
2022/08/15 06:30:17;;;;;;;6.63;2.10;;;;;;;22.90;85.53;99146.16;4861287;29;20069;-62
2022/08/15 06:33:10;;;;;;;3.83;1.63;;;;;;;23.37;82.86;99134.28;4890588;29;20032;-62
2022/08/15 06:35:49;;;;;;;6.23;1.80;;;;;;;23.67;80.68;99141.25;4895794;29;20420;-62
2022/08/15 06:38:34;;;;;;;5.15;1.70;;;;;;;23.92;78.70;99137.75;4877273;29;20317;-63
2022/08/15 06:41:13;;;;;;;4.10;1.63;;;;;;;24.01;77.26;99146.88;4892043;29;20504;-62
2022/08/15 06:43:56;;;;;;;3.28;1.50;;;;;;;23.93;77.07;99144.91;4895312;29;20054;-62
2022/08/15 06:46:25;;;;;;;3.03;1.30;;;;;;;23.87;77.07;99147.38;4888453;29;20473;-62
2022/08/15 06:48:50;;;;;;;4.15;1.58;;;;;;;24.01;77.30;99150.44;4895580;29;20047;-62
2022/08/15 06:51:18;;;;;;;7.78;1.52;;;;;;;24.26;77.16;99148.81;4886128;29;20040;-62
2022/08/15 06:53:52;;;;;;;3.88;1.80;;;;;;;24.44;75.42;99149.63;4895103;29;20040;-62
2022/08/15 06:56:18;;;;;;;4.47;1.88;;;;;;;24.38;74.92;99147.56;4895055;29;20033;-62
2022/08/15 06:59:08;;;;;;;4.50;1.55;;;;;;;24.48;74.17;99142.88;4878804;29;20036;-62
2022/08/15 07:01:49;;;;;;;4.93;1.70;;;;;;;24.64;74.38;99159.31;4894972;29;20498;-62
2022/08/15 07:04:25;;;;;;;2.95;1.20;;;;;;;24.85;72.30;99161.66;4889758;29;20044;-62
2022/08/15 07:06:58;;;;;;;4.63;1.48;;;;;;;24.96;71.06;99155.97;4894566;29;20041;-62
2022/08/15 07:09:41;;;;;;;4.70;1.98;;;;;;;25.18;70.37;99164.44;4894614;29;20029;-62
2022/08/15 07:12:34;;;;;;;3.10;1.35;;;;;;;25.34;70.20;99163.63;4895494;29;20067;-62
2022/08/15 07:15:04;;;;;;;2.17;1.27;;;;;;;25.23;68.31;99156.63;4891594;29;20036;-62
2022/08/15 07:17:47;;;;;;;2.90;1.40;;;;;;;25.26;69.32;99161.75;4876556;29;20045;-62
2022/08/15 07:30:22;;;;;;;4.40;1.30;;;;;;;26.45;64.06;99150.47;4889577;29;20092;-62
2022/08/15 07:32:51;;;;;;;7.35;1.42;;;;;;;26.60;62.52;99159.69;4895519;29;20369;-62
2022/08/15 07:35:23;;;;;;;3.90;1.30;;;;;;;26.73;62.01;99155.44;4888957;29;20052;-62
2022/08/15 07:37:48;;;;;;;6.28;1.27;;;;;;;26.89;60.79;99160.00;4889124;29;20474;-62
2022/08/15 07:40:36;;;;;;;2.25;1.20;;;;;;;27.16;60.26;99151.41;4883717;29;20081;-61
2022/08/15 07:43:05;;;;;;;2.83;1.42;;;;;;;27.39;58.70;99152.38;4887625;29;20036;-62
2022/08/15 07:45:34;;;;;;;2.55;0.98;;;;;;;27.64;59.06;99156.72;4896030;29;20029;-61
2022/08/15 07:48:04;;;;;;;2.20;1.17;;;;;;;27.78;58.16;99150.47;4885176;29;20055;-61
2022/08/15 07:50:37;;;;;;;4.55;1.80;;;;;;;27.94;54.62;99149.56;4880321;29;20059;-61
2022/08/15 07:53:18;;;;;;;;;;;;;;;28.26;54.87;99141.97;4896715;29;20542;-61
2022/08/15 07:56:12;;;;;;;2.28;0.93;;;;;;;28.48;51.61;99149.31;4894800;29;19942;-61
2022/08/15 07:58:41;;;;;;;2.33;1.08;;;;;;;28.43;53.30;99148.19;4873186;29;20087;-62
2022/08/15 08:01:26;;;;;;;3.97;1.10;;;;;;;28.54;51.41;99150.50;4882643;29;20584;-61
2022/08/15 08:04:01;;;;;;;2.33;1.02;;;;;;;28.48;52.44;99146.56;4895121;29;20039;-61
2022/08/15 08:06:38;;;;;;;7.25;1.10;;;;;;;28.89;50.61;99154.44;4892772;29;20063;-61
2022/08/15 08:09:13;;;;;;;4.95;1.27;;;;;;;29.09;50.40;99152.91;4895121;29;20396;-62
2022/08/15 08:11:44;;;;;;;1.90;1.00;;;;;;;29.17;51.49;99152.81;4895601;29;20511;-61
2022/08/15 08:14:10;;;;;;;2.08;1.00;;;;;;;29.21;48.84;99156.88;4895558;29;20492;-61
2022/08/15 08:17:24;;;;;;;4.70;1.15;;;;;;;28.82;49.96;99158.94;4895214;29;20037;-61
2022/08/15 08:20:03;;;;;;;2.00;1.13;;;;;;;28.80;51.67;99150.94;4833437;29;20049;-61
2022/08/15 08:22:55;;;;;;;2.60;1.25;;;;;;;29.21;51.29;99154.13;4876905;29;20115;-61
2022/08/15 08:25:29;;;;;;;2.05;1.08;;;;;;;29.27;49.24;99156.97;4887312;29;20040;-61
2022/08/15 08:28:09;;;;;;;2.28;1.25;;;;;;;29.79;48.93;99167.78;4895172;29;20560;-62
2022/08/15 08:31:04;;;;;;;2.47;1.20;;;;;;;29.96;47.49;99162.94;4895553;29;20032;-61
2022/08/15 08:33:56;;;;;;;1.70;0.95;;;;;;;30.19;45.62;99167.22;4895590;29;20037;-61
2022/08/15 08:36:27;;;;;;;3.10;1.35;;;;;;;30.33;46.35;99173.72;4881946;29;20024;-61
2022/08/15 08:39:05;;;;;;;3.72;1.00;;;;;;;30.51;45.36;99155.72;4894160;29;20484;-61
2022/08/15 08:41:47;;;;;;;2.15;0.95;;;;;;;30.66;43.45;99163.88;4881398;29;20033;-62
2022/08/15 08:44:28;;;;;;;2.22;0.90;;;;;;;30.65;43.98;99171.28;4876235;29;20043;-62
2022/08/15 08:47:16;;;;;;;2.70;1.08;;;;;;;30.85;43.36;99169.59;4888940;29;20078;-62
2022/08/15 08:50:00;;;;;;;3.40;1.88;;;;;;;31.28;42.53;99158.47;4892679;29;20032;-61
2022/08/15 08:52:41;;;;;;;4.90;1.23;;;;;;;31.44;41.93;99169.16;4887797;29;20043;-61
2022/08/15 08:55:18;;;;;;;1.77;0.98;;;;;;;31.58;42.22;99176.44;4894204;29;20385;-61
2022/08/15 08:57:46;;;;;;;4.25;2.10;;;;;;;31.89;41.69;99174.94;4893838;29;20071;-61
2022/08/15 09:00:40;;;;;;;1.60;0.90;;;;;;;32.28;41.31;99168.69;4894804;29;20520;-61
2022/08/15 09:03:20;;;;;;;1.65;0.90;;;;;;;32.25;42.34;99163.59;4894823;29;20115;-61
2022/08/15 09:05:54;;;;;;;2.00;0.80;;;;;;;32.80;40.51;99170.69;4895311;29;20036;-61
2022/08/15 09:08:46;;;;;;;2.85;1.13;;;;;;;32.44;40.15;99159.22;4879031;29;20070;-61
2022/08/15 09:11:44;;;;;;;1.98;0.90;;;;;;;32.69;39.95;99161.16;4876369;29;20064;-61
2022/08/15 09:14:17;;;;;;;2.05;0.90;;;;;;;32.80;39.93;99166.00;4873597;29;20052;-61
2022/08/15 09:16:44;;;;;;;1.75;0.80;;;;;;;32.84;40.84;99166.44;4875978;29;20025;-61
2022/08/15 09:19:19;;;;;;;2.33;0.98;;;;;;;33.23;39.11;99171.94;4878259;29;20089;-61
2022/08/15 09:21:45;;;;;;;3.08;0.90;;;;;;;33.45;39.06;99156.00;4879243;29;20037;-62
2022/08/15 09:24:13;;;;;;;3.17;1.15;;;;;;;33.10;38.54;99163.69;4879191;29;20504;-62
2022/08/15 09:27:05;;;;;;;2.28;1.00;;;;;;;33.01;38.21;99159.47;4878901;29;20041;-61
2022/08/15 09:29:36;;;;;;;2.47;1.33;;;;;;;32.66;38.63;99161.56;4879452;29;20040;-61
2022/08/15 09:32:39;;;;;;;2.13;1.20;;;;;;;33.23;39.29;99152.63;4885963;29;20427;-61
2022/08/15 09:35:14;;;;;;;;;;;;;;;32.42;40.50;99158.59;4897445;29;20489;-61
2022/08/15 09:38:01;;;;;;;2.38;1.00;;;;;;;32.18;40.59;99157.22;4898215;29;19923;-60
2022/08/15 09:41:10;;;;;;;3.65;1.90;;;;;;;32.45;40.41;99148.00;4895638;29;20092;-60
2022/08/15 09:43:55;;;;;;;2.85;1.50;;;;;;;32.27;40.52;99150.47;4878802;29;20204;-60
2022/08/15 09:46:36;;;;;;;2.25;1.17;;;;;;;32.38;39.55;99132.47;4884592;29;20077;-61
2022/08/15 09:49:27;;;;;;;2.95;1.25;;;;;;;33.08;37.51;99139.09;4878036;29;20029;-61
2022/08/15 09:51:58;;;;;;;2.45;1.30;;;;;;;33.00;38.85;99143.97;4889355;29;20066;-61
2022/08/15 09:54:26;;;;;;;2.05;0.90;;;;;;;33.01;38.82;99137.44;4896539;29;20124;-61
2022/08/15 09:57:20;;;;;;;1.40;0.88;;;;;;;33.65;37.11;99134.72;4896376;29;20533;-61
2022/08/15 09:59:57;;;;;;;2.33;1.20;;;;;;;34.06;36.17;99140.72;4896241;29;20053;-61
2022/08/15 10:02:26;;;;;;;2.53;1.10;;;;;;;34.57;34.19;99133.19;4896645;29;20584;-61
2022/08/15 10:04:57;;;;;;;1.88;1.10;;;;;;;34.54;34.36;99130.88;4896213;29;20109;-61
2022/08/15 10:07:42;;;;;;;4.85;1.30;;;;;;;34.72;36.20;99121.78;4896204;29;20035;-61
2022/08/15 10:10:36;;;;;;;1.95;0.90;;;;;;;34.72;35.63;99111.59;4877786;29;20146;-61
2022/08/15 10:13:07;;;;;;;2.40;1.30;;;;;;;34.72;35.36;99117.13;4878227;29;20057;-61
2022/08/15 10:15:47;;;;;;;2.97;1.40;;;;;;;34.82;34.71;99111.94;4878280;29;20505;-61
2022/08/15 10:18:21;;;;;;;2.33;1.13;;;;;;;34.50;35.79;99113.03;4878385;29;20047;-62
2022/08/15 10:21:00;;;;;;;2.83;1.17;;;;;;;34.71;35.05;99115.44;4877570;29;20454;-61
2022/08/15 10:23:36;;;;;;;2.45;1.30;;;;;;;34.99;34.27;99102.03;4878936;29;20032;-61
2022/08/15 10:26:24;;;;;;;5.28;1.35;;;;;;;35.06;33.96;99101.97;4883241;29;20085;-61
2022/08/15 10:29:25;;;;;;;2.95;1.25;;;;;;;35.03;32.60;99083.03;4892144;29;20028;-61
2022/08/15 10:31:57;;;;;;;3.70;1.40;;;;;;;35.19;33.26;99107.34;4890253;29;20140;-61
2022/08/15 10:34:37;;;;;;;5.32;1.40;;;;;;;35.34;33.28;99094.81;4894116;29;20029;-61
2022/08/15 10:37:15;;;;;;;2.55;1.27;;;;;;;35.50;33.13;99094.22;4896876;29;20155;-62
2022/08/15 10:40:18;;;;;;;3.75;1.40;;;;;;;35.24;33.58;99100.03;4889436;29;20377;-62
2022/08/15 10:43:08;;;;;;;1.98;1.13;;;;;;;35.13;33.38;99095.25;4875320;29;20028;-61
2022/08/15 10:45:46;;;;;;;3.25;1.40;;;;;;;35.46;33.87;99098.53;4894951;29;20028;-61
2022/08/15 10:48:34;;;;;;;5.63;1.48;;;;;;;35.65;32.59;99091.06;4878798;29;20037;-61
2022/08/15 10:51:38;;;;;;;2.58;1.20;;;;;;;35.79;32.75;99089.81;4878132;29;20037;-61
2022/08/15 10:54:34;;;;;;;2.50;1.25;;;;;;;35.97;32.48;99094.47;4881415;29;20504;-62
2022/08/15 10:57:04;;;;;;;2.20;1.38;;;;;;;35.34;33.32;99092.03;4879878;29;20033;-61
2022/08/15 10:59:40;;;;;;;2.35;1.58;;;;;;;35.42;33.13;99086.22;4879958;29;20037;-62
2022/08/15 11:02:16;;;;;;;3.85;1.50;;;;;;;35.31;34.02;99067.63;4877207;29;20037;-61
2022/08/15 11:04:43;;;;;;;3.42;1.55;;;;;;;35.91;32.64;99068.59;4894669;29;20036;-61
2022/08/15 11:07:27;;;;;;;1.98;1.13;;;;;;;36.15;31.79;99064.81;4894288;29;20032;-61
2022/08/15 11:10:01;;;;;;;2.42;1.27;;;;;;;36.12;32.42;99073.59;4894565;29;20657;-61
2022/08/15 11:12:30;;;;;;;3.22;1.27;;;;;;;36.22;32.19;99073.88;4894931;29;20036;-61
2022/08/15 11:15:04;;;;;;;2.47;1.40;;;;;;;36.52;32.25;99071.06;4893597;29;20029;-61
2022/08/15 11:17:32;;;;;;;2.13;1.30;;;;;;;36.23;32.54;99077.50;4894519;29;20051;-61
2022/08/15 11:20:21;;;;;;;2.90;1.40;;;;;;;36.51;31.76;99069.41;4894693;29;20396;-61
2022/08/15 11:23:00;;;;;;;3.05;1.40;;;;;;;36.46;31.83;99066.50;4896956;29;20036;-61
2022/08/15 11:25:29;;;;;;;3.83;1.85;;;;;;;36.66;31.66;99073.38;4877787;29;20039;-61
2022/08/15 11:28:03;;;;;;;2.95;1.75;;;;;;;36.33;32.18;99073.06;4888540;29;20044;-61
2022/08/15 11:30:30;;;;;;;4.07;1.20;;;;;;;36.15;32.35;99063.97;4895174;29;20107;-61
2022/08/15 11:33:17;;;;;;;4.45;1.60;;;;;;;36.58;31.79;99065.41;4891749;29;20041;-61
2022/08/15 11:35:43;;;;;;;3.05;1.40;;;;;;;37.09;30.99;99059.16;4877771;29;20496;-61
2022/08/15 11:38:08;;;;;;;2.70;1.60;;;;;;;37.23;31.94;99055.06;4877345;29;20041;-62
2022/08/15 11:40:38;;;;;;;2.78;1.63;;;;;;;37.30;31.25;99055.78;4877019;29;20481;-61
2022/08/15 11:43:07;;;;;;;5.50;1.63;;;;;;;37.65;30.24;99052.91;4877315;29;20058;-62
2022/08/15 11:45:43;;;;;;;2.55;1.55;;;;;;;37.67;29.84;99057.13;4879056;29;20095;-62
2022/08/15 11:48:18;;;;;;;2.72;1.48;;;;;;;37.35;29.70;99053.13;4877366;29;20180;-62
2022/08/15 11:51:04;;;;;;;3.90;1.73;;;;;;;37.39;30.77;99051.56;4877262;29;20101;-62
2022/08/15 11:53:32;;;;;;;2.25;1.50;;;;;;;37.54;30.24;99043.56;4877258;29;20033;-62
2022/08/15 11:55:59;;;;;;;2.80;1.50;;;;;;;37.67;31.45;99046.03;4876990;29;20120;-62
2022/08/15 11:58:34;;;;;;;3.55;1.73;;;;;;;37.75;31.02;99050.38;4876949;29;20056;-62
2022/08/15 12:01:19;;;;;;;3.92;1.60;;;;;;;37.38;30.08;99049.84;4877213;29;20197;-61
2022/08/15 12:04:05;;;;;;;3.30;1.63;;;;;;;36.65;30.72;99048.66;4892586;29;20172;-62
2022/08/15 12:06:35;;;;;;;2.95;1.65;;;;;;;37.00;31.59;99046.78;4880639;29;20437;-62
2022/08/15 12:09:14;;;;;;;4.72;1.70;;;;;;;37.29;31.77;99058.81;4877146;29;20033;-62
2022/08/15 12:11:50;;;;;;;3.13;2.17;;;;;;;37.22;31.65;99067.22;4877203;29;20406;-62
2022/08/15 12:14:24;;;;;;;2.80;1.60;;;;;;;37.30;30.92;99075.22;4892164;29;20036;-62